Time;durP1;ratioP1;P1;durP2;ratioP2;P2;SDS_P1;SDS_P2;PMS_P1;PMS_P2;Temp;Humidity;BMP_temperature;BMP_pressure;BME280_temperature;BME280_humidity;BME280_pressure;Samples;Min_cycle;Max_cycle;Signal;HPM_P1;HPM_P2
2021/06/02 00:00:27;;;;;;;6.22;5.63;;;15.60;99.90;;;;;;5059805;28;20221;-64
2021/06/02 00:02:59;;;;;;;6.57;5.97;;;15.50;99.90;;;;;;5057953;28;20259;-63
2021/06/02 00:05:27;;;;;;;7.93;7.10;;;15.60;99.90;;;;;;5057192;28;20212;-64
2021/06/02 00:07:55;;;;;;;6.50;5.85;;;15.60;99.90;;;;;;5058453;28;20471;-63
2021/06/02 00:10:22;;;;;;;9.77;6.70;;;15.50;99.90;;;;;;5053924;28;20554;-64
2021/06/02 00:12:49;;;;;;;7.68;6.15;;;15.50;99.90;;;;;;5052226;28;20223;-63
2021/06/02 00:15:16;;;;;;;9.98;6.07;;;15.40;99.90;;;;;;5057166;28;20248;-63
2021/06/02 00:17:43;;;;;;;6.10;5.50;;;15.40;99.90;;;;;;5057099;28;20212;-64
2021/06/02 00:20:11;;;;;;;6.97;5.88;;;15.30;99.90;;;;;;5058330;28;20242;-63
2021/06/02 00:22:39;;;;;;;5.88;5.28;;;15.30;99.90;;;;;;5058098;28;20205;-63
2021/06/02 00:25:07;;;;;;;7.72;6.22;;;15.30;99.90;;;;;;5054912;28;20246;-65
2021/06/02 00:27:38;;;;;;;8.95;7.30;;;15.30;99.90;;;;;;5057403;28;20257;-64
2021/06/02 00:30:08;;;;;;;6.45;5.90;;;15.30;99.90;;;;;;5058429;28;20253;-64
2021/06/02 00:32:36;;;;;;;6.22;5.63;;;15.30;99.90;;;;;;5046241;28;20211;-63
2021/06/02 00:35:05;;;;;;;7.60;5.90;;;15.30;99.80;;;;;;5058086;28;20760;-63
2021/06/02 00:37:33;;;;;;;6.72;6.00;;;15.30;99.60;;;;;;5057649;28;20200;-63
2021/06/02 00:40:01;;;;;;;5.95;5.55;;;15.40;99.70;;;;;;5057725;28;20210;-64
2021/06/02 00:42:32;;;;;;;6.25;5.38;;;15.40;99.50;;;;;;5055340;28;20244;-64
2021/06/02 00:44:59;;;;;;;6.63;5.55;;;14.70;99.30;;;;;;5056090;28;20563;-64
2021/06/02 00:47:27;;;;;;;6.05;5.55;;;15.40;99.40;;;;;;5060014;28;20212;-65
2021/06/02 00:49:54;;;;;;;8.65;6.57;;;15.40;99.40;;;;;;5060675;28;20201;-64
2021/06/02 00:52:21;;;;;;;5.60;5.07;;;15.50;99.20;;;;;;5061443;28;20651;-64
2021/06/02 00:54:48;;;;;;;10.45;6.65;;;15.50;99.60;;;;;;5060035;28;20503;-64
2021/06/02 00:57:17;;;;;;;7.90;6.90;;;15.50;99.50;;;;;;5061607;28;20209;-63
2021/06/02 00:59:45;;;;;;;7.40;6.57;;;15.50;99.50;;;;;;5058957;28;20738;-65
2021/06/02 01:02:17;;;;;;;6.65;5.97;;;15.50;99.50;;;;;;5061666;28;20498;-63
2021/06/02 01:04:47;;;;;;;6.85;5.85;;;15.50;99.70;;;;;;5059226;28;20204;-64
2021/06/02 01:07:14;;;;;;;7.07;6.40;;;15.50;99.70;;;;;;5060574;28;20398;-65
2021/06/02 01:09:49;;;;;;;6.68;5.97;;;15.40;99.90;;;;;;5052401;28;20379;-65
2021/06/02 01:12:22;;;;;;;6.93;6.10;;;15.40;99.90;;;;;;5053574;28;20271;-64
2021/06/02 01:14:50;;;;;;;7.72;6.18;;;15.30;99.90;;;;;;5057876;28;20261;-64
2021/06/02 01:17:20;;;;;;;6.63;6.03;;;15.30;99.90;;;;;;5061030;28;20246;-63
2021/06/02 01:19:47;;;;;;;6.88;6.20;;;15.30;99.90;;;;;;5056665;28;20622;-64
2021/06/02 01:22:16;;;;;;;9.65;7.05;;;15.30;99.90;;;;;;5051015;28;20244;-63
2021/06/02 01:24:43;;;;;;;6.57;6.03;;;15.30;99.90;;;;;;5049877;28;20247;-63
2021/06/02 01:27:12;;;;;;;6.55;6.05;;;15.20;99.90;;;;;;5060488;28;20209;-63
2021/06/02 01:29:44;;;;;;;8.30;7.53;;;15.20;99.90;;;;;;5056494;28;20397;-63
2021/06/02 01:32:38;;;;;;;7.50;6.75;;;15.20;99.90;;;;;;5050383;28;20232;-64
2021/06/02 01:35:17;;;;;;;7.13;6.43;;;15.10;99.90;;;;;;5060060;28;20208;-64
2021/06/02 01:38:25;;;;;;;8.43;6.72;;;15.20;99.90;;;;;;5051883;28;20257;-64
2021/06/02 01:41:19;;;;;;;7.47;6.75;;;15.10;99.90;;;;;;5058249;28;20432;-64
2021/06/02 01:44:32;;;;;;;8.68;6.72;;;15.10;99.90;;;;;;5057712;28;20202;-64
2021/06/02 01:47:23;;;;;;;10.20;7.43;;;15.10;99.90;;;;;;5061042;28;20261;-63
2021/06/02 01:50:28;;;;;;;6.97;6.28;;;15.10;99.90;;;;;;5053745;28;20204;-63
2021/06/02 01:53:10;;;;;;;8.55;6.90;;;15.00;99.90;;;;;;5046112;28;20250;-63
2021/06/02 01:56:01;;;;;;;8.70;7.28;;;15.00;99.90;;;;;;5056037;28;20212;-63
2021/06/02 01:59:09;;;;;;;8.85;7.95;;;15.10;99.90;;;;;;5058835;28;20202;-64
2021/06/02 02:02:13;;;;;;;9.55;7.55;;;15.10;99.90;;;;;;5054491;28;20204;-63
2021/06/02 02:05:22;;;;;;;15.30;7.78;;;15.00;99.90;;;;;;5055933;28;20223;-64
2021/06/02 02:07:56;;;;;;;7.63;7.03;;;15.00;99.90;;;;;;5056008;28;20204;-63
2021/06/02 02:10:38;;;;;;;14.52;8.85;;;15.00;99.90;;;;;;5059891;28;20204;-65
2021/06/02 02:13:15;;;;;;;8.27;6.72;;;15.00;99.90;;;;;;5055771;28;20245;-63
2021/06/02 02:16:20;;;;;;;10.20;6.97;;;14.90;99.90;;;;;;5057961;28;20529;-64
2021/06/02 02:18:55;;;;;;;8.45;6.85;;;14.90;99.90;;;;;;5059714;28;20834;-62
2021/06/02 02:21:47;;;;;;;8.57;7.88;;;14.80;99.90;;;;;;5053931;28;20274;-63
2021/06/02 02:24:30;;;;;;;10.07;7.03;;;14.80;99.90;;;;;;5053882;28;20452;-63
2021/06/02 02:27:08;;;;;;;8.60;7.80;;;14.90;99.90;;;;;;5052099;28;20478;-63
2021/06/02 02:29:50;;;;;;;10.43;7.85;;;14.90;99.90;;;;;;5056272;28;20208;-64
2021/06/02 02:32:43;;;;;;;7.78;7.10;;;14.90;99.90;;;;;;5059473;28;20228;-64
2021/06/02 02:35:34;;;;;;;7.38;6.68;;;14.90;99.90;;;;;;5042353;28;20206;-64
2021/06/02 02:38:06;;;;;;;8.80;8.10;;;14.90;99.90;;;;;;5055150;28;20458;-63
2021/06/02 02:40:39;;;;;;;8.20;7.40;;;14.90;99.90;;;;;;5053788;28;20208;-64
2021/06/02 02:43:34;;;;;;;7.88;6.90;;;15.00;99.90;;;;;;5083719;28;20249;-65
2021/06/02 02:46:21;;;;;;;10.18;7.25;;;15.00;99.90;;;;;;5059856;28;20500;-64
2021/06/02 02:48:48;;;;;;;8.10;6.20;;;14.90;99.90;;;;;;5041718;28;20205;-64
2021/06/02 02:51:33;;;;;;;8.75;8.05;;;14.80;99.90;;;;;;5052539;28;20568;-64
2021/06/02 02:54:25;;;;;;;9.68;7.78;;;14.90;99.90;;;;;;5047149;28;20209;-64
2021/06/02 02:57:13;;;;;;;9.95;8.27;;;15.00;99.90;;;;;;5056978;28;20399;-64
2021/06/02 02:59:50;;;;;;;8.93;7.97;;;15.00;99.90;;;;;;5041305;28;20233;-64
2021/06/02 03:02:29;;;;;;;8.90;6.85;;;14.90;99.90;;;;;;5053713;28;20499;-63
2021/06/02 03:05:00;;;;;;;7.65;6.95;;;14.90;99.90;;;;;;5041205;28;20259;-64
2021/06/02 03:07:33;;;;;;;8.07;6.97;;;15.00;99.90;;;;;;5055531;28;20503;-64
2021/06/02 03:10:08;;;;;;;6.95;6.45;;;15.10;99.90;;;;;;5048409;28;20258;-64
2021/06/02 03:13:00;;;;;;;10.52;8.82;;;15.00;99.90;;;;;;5056415;28;20257;-65
2021/06/02 03:15:48;;;;;;;8.85;6.53;;;14.90;99.90;;;;;;5058689;28;20552;-64
2021/06/02 03:18:39;;;;;;;10.48;9.57;;;15.00;99.90;;;;;;5049676;28;20200;-64
2021/06/02 03:21:31;;;;;;;9.52;8.63;;;15.00;99.90;;;;;;5058084;28;20211;-64
2021/06/02 03:24:04;;;;;;;10.88;8.25;;;15.00;99.90;;;;;;5054735;28;20568;-64
2021/06/02 03:26:36;;;;;;;9.20;8.15;;;15.00;99.90;;;;;;5054516;28;20516;-63
2021/06/02 03:29:15;;;;;;;13.80;8.35;;;15.10;99.90;;;;;;5052547;28;20273;-64
2021/06/02 03:32:20;;;;;;;9.63;8.75;;;15.20;99.90;;;;;;5057191;28;20234;-63
2021/06/02 03:35:08;;;;;;;12.50;10.93;;;15.20;99.90;;;;;;5050243;28;20203;-64
2021/06/02 03:38:17;;;;;;;9.95;8.95;;;15.20;99.90;;;;;;5052425;28;20208;-63
2021/06/02 03:41:08;;;;;;;10.80;9.77;;;15.10;99.90;;;;;;5049304;28;20195;-62
2021/06/02 03:43:36;;;;;;;8.43;7.60;;;15.10;99.90;;;;;;5052422;28;20212;-63
2021/06/02 03:46:37;;;;;;;8.90;7.75;;;15.10;99.90;;;;;;5056959;28;20250;-64
2021/06/02 03:49:24;;;;;;;9.10;8.15;;;15.10;99.90;;;;;;5048245;28;20205;-63
2021/06/02 03:52:03;;;;;;;10.02;9.02;;;15.20;99.90;;;;;;5049302;28;20229;-63
2021/06/02 03:54:34;;;;;;;10.25;8.15;;;15.20;99.90;;;;;;5058250;28;20258;-64
2021/06/02 03:57:36;;;;;;;9.60;7.75;;;15.10;99.90;;;;;;5053793;28;20499;-64
2021/06/02 04:00:10;;;;;;;8.90;8.07;;;15.30;99.90;;;;;;5051376;28;20197;-64
2021/06/02 04:03:01;;;;;;;9.05;7.63;;;15.30;99.90;;;;;;5047080;28;20327;-67
2021/06/02 04:06:05;;;;;;;11.25;9.20;;;15.40;99.90;;;;;;5053173;28;20217;-64
2021/06/02 04:08:45;;;;;;;9.95;8.95;;;15.50;99.90;;;;;;5054368;28;20213;-63
2021/06/02 04:11:33;;;;;;;10.05;8.13;;;15.50;99.90;;;;;;5047325;28;20238;-64
2021/06/02 04:14:07;;;;;;;9.57;8.57;;;15.60;99.90;;;;;;5054499;28;20251;-63
2021/06/02 04:16:38;;;;;;;10.38;8.65;;;15.70;99.80;;;;;;5057996;28;20577;-65
2021/06/02 04:19:15;;;;;;;9.88;8.57;;;15.80;99.50;;;;;;5057805;28;20209;-63
2021/06/02 04:21:45;;;;;;;11.60;9.90;;;15.80;99.40;;;;;;5060666;28;20254;-63
2021/06/02 04:24:17;;;;;;;10.75;9.75;;;15.70;99.60;;;;;;5061555;28;20208;-64
2021/06/02 04:26:45;;;;;;;9.38;8.52;;;16.00;99.40;;;;;;5062160;28;20213;-65
2021/06/02 04:29:14;;;;;;;10.30;9.20;;;15.80;99.20;;;;;;5055131;28;20258;-64
2021/06/02 04:31:51;;;;;;;8.85;8.02;;;15.90;99.20;;;;;;5048866;28;20478;-64
2021/06/02 04:34:20;;;;;;;9.60;8.70;;;15.90;99.20;;;;;;5048430;28;20208;-65
2021/06/02 04:36:52;;;;;;;10.30;9.20;;;15.80;99.30;;;;;;5049357;28;20244;-63
2021/06/02 04:39:21;;;;;;;9.63;8.70;;;15.80;99.30;;;;;;5055053;28;20453;-64
2021/06/02 04:41:48;;;;;;;8.35;7.47;;;15.80;99.30;;;;;;5053922;28;20295;-64
2021/06/02 04:44:17;;;;;;;9.53;8.63;;;15.90;99.30;;;;;;5054278;28;20209;-64
2021/06/02 04:46:47;;;;;;;11.20;9.30;;;15.80;99.10;;;;;;5059638;28;20435;-64
2021/06/02 04:49:15;;;;;;;10.20;9.30;;;15.90;99.20;;;;;;5055394;28;20453;-65
2021/06/02 04:51:59;;;;;;;8.63;7.73;;;16.00;99.00;;;;;;5055801;28;20244;-64
2021/06/02 04:54:57;;;;;;;13.07;8.98;;;16.10;99.10;;;;;;5055839;28;20402;-64
2021/06/02 04:57:46;;;;;;;17.25;8.82;;;16.10;98.70;;;;;;5070738;28;20559;-63
2021/06/02 05:00:30;;;;;;;12.63;9.63;;;16.20;98.50;;;;;;5055437;28;20237;-64
2021/06/02 05:03:15;;;;;;;9.63;8.73;;;16.20;98.30;;;;;;5055306;28;20200;-64
2021/06/02 05:06:20;;;;;;;9.35;8.35;;;16.20;98.30;;;;;;5054837;28;20197;-64
2021/06/02 05:09:17;;;;;;;14.23;9.50;;;16.20;98.40;;;;;;5055386;28;20250;-63
2021/06/02 05:12:21;;;;;;;9.07;8.27;;;16.30;98.30;;;;;;5049233;28;20498;-63
2021/06/02 05:15:04;;;;;;;17.80;10.27;;;16.40;98.10;;;;;;5058453;28;20775;-64
2021/06/02 05:17:31;;;;;;;10.10;9.10;;;16.50;97.60;;;;;;5060270;28;20445;-64
2021/06/02 05:23:48;;;;;;;11.03;9.70;;;16.30;98.00;;;;;;5057824;28;20448;-64
2021/06/02 05:26:52;;;;;;;10.50;9.50;;;16.50;97.90;;;;;;5055589;28;20478;-64
2021/06/02 05:29:34;;;;;;;11.83;9.47;;;16.50;97.90;;;;;;5054558;28;20417;-64
2021/06/02 05:32:33;;;;;;;10.57;9.47;;;16.50;97.60;;;;;;5056263;28;20490;-63
2021/06/02 05:35:19;;;;;;;11.93;9.77;;;16.50;97.80;;;;;;5059123;28;20422;-65
2021/06/02 05:38:25;;;;;;;10.03;9.10;;;16.70;97.60;;;;;;5053466;28;20417;-64
2021/06/02 05:41:17;;;;;;;12.57;10.60;;;16.90;97.30;;;;;;5053198;28;20456;-65
2021/06/02 05:43:50;;;;;;;10.63;9.33;;;17.20;96.80;;;;;;5053646;28;20415;-64
2021/06/02 05:46:45;;;;;;;14.87;9.80;;;17.50;96.20;;;;;;5052485;28;20614;-64
2021/06/02 05:49:34;;;;;;;12.33;10.23;;;17.60;96.00;;;;;;5057222;28;20460;-64
2021/06/02 05:52:01;;;;;;;14.33;11.03;;;17.50;96.00;;;;;;5057633;28;20508;-63
2021/06/02 05:54:46;;;;;;;12.00;10.90;;;17.70;95.90;;;;;;5059974;28;20617;-63
2021/06/02 05:57:32;;;;;;;12.43;11.13;;;18.10;95.10;;;;;;5057035;28;20487;-64
2021/06/02 06:00:21;;;;;;;12.10;10.90;;;18.10;95.20;;;;;;5055466;28;20799;-65
2021/06/02 06:03:06;;;;;;;13.03;11.20;;;18.30;94.60;;;;;;5059483;28;20445;-65
2021/06/02 06:05:44;;;;;;;13.50;11.60;;;18.00;94.50;;;;;;5057844;28;20436;-64
2021/06/02 06:08:39;;;;;;;13.10;11.13;;;17.90;94.80;;;;;;5059146;28;20413;-64
2021/06/02 06:11:44;;;;;;;12.57;11.47;;;18.30;94.30;;;;;;5057262;28;20419;-63
2021/06/02 06:14:43;;;;;;;12.40;11.10;;;18.30;93.80;;;;;;5058709;28;20410;-65
2021/06/02 06:17:13;;;;;;;13.20;11.90;;;18.40;93.60;;;;;;5055578;28;20410;-64
2021/06/02 06:20:02;;;;;;;11.77;10.60;;;18.50;93.20;;;;;;5056222;28;20443;-64
2021/06/02 06:22:51;;;;;;;11.20;10.10;;;18.90;92.90;;;;;;5057921;28;20481;-65
2021/06/02 06:25:46;;;;;;;13.07;11.07;;;18.90;92.10;;;;;;5058795;28;20505;-65
2021/06/02 06:28:34;;;;;;;13.13;11.73;;;18.80;92.20;;;;;;5059166;28;20411;-64
2021/06/02 06:31:10;;;;;;;13.60;12.20;;;19.20;91.80;;;;;;5056521;28;20415;-63
2021/06/02 06:33:39;;;;;;;14.37;12.90;;;20.10;90.80;;;;;;5058627;28;20454;-66
2021/06/02 06:36:10;;;;;;;12.50;11.10;;;20.20;89.10;;;;;;5056638;28;20435;-67
2021/06/02 06:39:05;;;;;;;13.60;12.30;;;20.30;87.80;;;;;;5059069;28;20419;-66
2021/06/02 06:41:34;;;;;;;12.07;10.37;;;21.50;85.30;;;;;;5057436;28;20551;-66
2021/06/02 06:44:03;;;;;;;11.20;10.20;;;23.30;76.90;;;;;;5057973;28;20410;-65
2021/06/02 06:46:31;;;;;;;13.07;11.13;;;23.60;73.50;;;;;;5056576;28;20428;-65
2021/06/02 06:49:01;;;;;;;11.37;10.27;;;22.20;75.90;;;;;;5057293;28;20586;-66
2021/06/02 06:51:29;;;;;;;11.73;10.80;;;21.40;78.00;;;;;;5055735;28;20508;-65
2021/06/02 06:53:57;;;;;;;11.17;10.07;;;21.30;78.90;;;;;;5055827;28;20457;-65
2021/06/02 06:56:27;;;;;;;11.57;10.27;;;21.10;79.40;;;;;;5058116;28;20465;-65
2021/06/02 06:58:57;;;;;;;9.67;8.63;;;21.00;80.00;;;;;;5057886;28;20556;-65
2021/06/02 07:01:24;;;;;;;11.07;9.93;;;21.00;80.20;;;;;;5058044;28;20437;-65
2021/06/02 07:03:52;;;;;;;11.10;10.10;;;20.80;79.40;;;;;;5056356;28;20732;-66
2021/06/02 07:06:20;;;;;;;12.27;9.77;;;20.60;79.70;;;;;;5055519;28;20455;-65
2021/06/02 07:08:49;;;;;;;10.60;9.70;;;20.50;80.40;;;;;;5057026;28;20431;-66
2021/06/02 07:11:20;;;;;;;9.80;9.03;;;20.40;79.80;;;;;;5056360;28;20415;-64
2021/06/02 07:13:47;;;;;;;10.50;9.60;;;20.60;80.50;;;;;;5057281;28;20463;-64
2021/06/02 07:16:16;;;;;;;12.00;10.77;;;20.30;80.00;;;;;;5055308;28;20420;-64
2021/06/02 07:18:47;;;;;;;10.30;9.30;;;20.40;80.10;;;;;;5057978;28;20763;-65
2021/06/02 07:21:18;;;;;;;17.80;10.57;;;20.60;78.80;;;;;;5054322;28;20419;-65
2021/06/02 07:23:45;;;;;;;10.00;9.17;;;20.50;79.20;;;;;;5058641;28;20449;-65
2021/06/02 07:26:12;;;;;;;12.90;9.10;;;20.60;78.10;;;;;;5056682;28;20491;-66
2021/06/02 07:29:00;;;;;;;10.33;9.37;;;20.60;78.10;;;;;;5057955;28;20445;-63
2021/06/02 07:31:27;;;;;;;11.30;9.80;;;21.00;78.50;;;;;;5056523;28;20445;-66
2021/06/02 07:33:54;;;;;;;10.33;9.50;;;21.30;77.00;;;;;;5057950;28;20498;-66
2021/06/02 07:36:21;;;;;;;12.30;11.20;;;21.70;74.90;;;;;;5056935;28;20462;-67
2021/06/02 07:38:48;;;;;;;10.60;9.80;;;22.10;73.10;;;;;;5053150;28;20411;-65
2021/06/02 07:41:15;;;;;;;10.40;9.40;;;22.40;72.40;;;;;;5057841;28;20449;-65
2021/06/02 07:43:42;;;;;;;9.80;8.90;;;23.10;70.20;;;;;;5055927;28;20599;-65
2021/06/02 07:46:09;;;;;;;9.83;9.23;;;22.90;70.60;;;;;;5057850;28;20411;-65
2021/06/02 07:48:37;;;;;;;10.07;9.27;;;23.80;68.50;;;;;;5056700;28;20414;-65
2021/06/02 07:51:04;;;;;;;10.87;9.90;;;25.30;63.60;;;;;;5056834;28;20458;-67
2021/06/02 07:53:31;;;;;;;11.13;10.33;;;25.20;64.00;;;;;;5057021;28;20485;-66
2021/06/02 07:55:58;;;;;;;14.70;10.73;;;25.00;63.50;;;;;;5054698;28;20437;-66
2021/06/02 07:58:26;;;;;;;9.40;8.60;;;24.60;64.50;;;;;;5054679;28;20441;-66
2021/06/02 08:00:53;;;;;;;18.73;9.77;;;24.50;63.80;;;;;;5055837;28;20445;-65
2021/06/02 08:03:20;;;;;;;9.43;8.63;;;23.60;66.30;;;;;;5053983;28;21003;-67
2021/06/02 08:05:47;;;;;;;8.63;7.90;;;23.30;66.70;;;;;;5054963;28;20674;-67
2021/06/02 08:08:14;;;;;;;8.77;7.97;;;22.60;63.60;;;;;;5054558;28;20423;-66
2021/06/02 08:10:41;;;;;;;8.70;7.87;;;22.20;64.60;;;;;;5056051;28;20805;-66
2021/06/02 08:13:08;;;;;;;8.30;7.60;;;22.50;60.40;;;;;;5056869;28;20485;-67
2021/06/02 08:15:35;;;;;;;8.60;8.00;;;23.40;60.30;;;;;;5055918;28;20440;-66
2021/06/02 08:18:05;;;;;;;8.70;7.90;;;24.30;57.80;;;;;;5056212;28;20445;-69
2021/06/02 08:20:32;;;;;;;9.63;8.80;;;27.20;52.20;;;;;;5056018;28;20686;-66
2021/06/02 08:22:59;;;;;;;9.87;9.17;;;28.80;48.60;;;;;;5054052;28;20440;-68
2021/06/02 08:25:26;;;;;;;10.27;9.27;;;28.00;48.50;;;;;;5043645;28;20499;-68
2021/06/02 08:27:53;;;;;;;9.83;9.23;;;27.80;47.80;;;;;;5056081;28;20449;-66
2021/06/02 08:30:22;;;;;;;9.50;8.70;;;29.00;47.10;;;;;;5055198;28;20435;-67
2021/06/02 08:32:49;;;;;;;9.37;8.57;;;28.50;47.00;;;;;;5048930;28;20477;-64
2021/06/02 08:35:18;;;;;;;9.03;8.40;;;27.20;48.40;;;;;;5054357;28;20468;-64
2021/06/02 08:37:46;;;;;;;8.73;8.07;;;26.30;49.90;;;;;;5049559;28;20492;-68
2021/06/02 08:40:15;;;;;;;8.27;7.67;;;25.90;51.40;;;;;;5055485;28;20435;-65
2021/06/02 08:42:46;;;;;;;9.40;8.77;;;27.30;48.90;;;;;;5047857;28;20474;-64
2021/06/02 08:45:16;;;;;;;9.47;8.77;;;29.70;45.80;;;;;;5046338;28;20446;-64
2021/06/02 08:47:44;;;;;;;10.40;9.50;;;32.00;42.40;;;;;;5053423;28;20449;-65
2021/06/02 08:50:13;;;;;;;9.20;8.70;;;33.90;38.20;;;;;;5050577;28;20448;-64
2021/06/02 08:52:42;;;;;;;9.40;8.90;;;32.80;36.50;;;;;;5054149;28;20477;-64
2021/06/02 08:55:13;;;;;;;9.60;9.00;;;32.50;37.20;;;;;;5051026;28;20457;-67
2021/06/02 08:57:42;;;;;;;11.10;10.00;;;33.40;36.50;;;;;;5051719;28;20434;-65
2021/06/02 09:00:12;;;;;;;8.80;8.33;;;33.90;35.50;;;;;;5051771;28;20455;-65
2021/06/02 09:02:41;;;;;;;9.80;9.10;;;33.60;35.70;;;;;;5055605;28;20450;-65
2021/06/02 09:05:09;;;;;;;11.57;10.67;;;35.00;33.60;;;;;;5052449;28;20513;-65
2021/06/02 09:07:39;;;;;;;9.43;8.93;;;35.30;33.10;;;;;;5053306;28;20500;-64
2021/06/02 09:10:09;;;;;;;9.77;9.07;;;34.60;32.30;;;;;;5049629;28;20468;-66
2021/06/02 09:12:39;;;;;;;10.03;9.33;;;35.50;32.10;;;;;;5060237;28;20690;-65
2021/06/02 09:15:14;;;;;;;9.47;8.87;;;36.40;31.10;;;;;;5055257;28;20434;-66
2021/06/02 09:17:53;;;;;;;10.07;9.37;;;35.50;30.00;;;;;;5048617;28;20432;-68
2021/06/02 09:20:41;;;;;;;9.33;8.80;;;34.20;31.60;;;;;;5051351;28;20450;-66
2021/06/02 09:23:30;;;;;;;9.23;8.73;;;33.80;33.10;;;;;;5050131;28;20448;-65
2021/06/02 09:26:12;;;;;;;9.20;8.60;;;32.90;32.60;;;;;;5055874;28;20447;-66
2021/06/02 09:29:15;;;;;;;7.70;7.30;;;30.40;31.90;;;;;;5050559;28;20444;-67
2021/06/02 09:31:44;;;;;;;8.50;8.07;;;30.50;32.30;;;;;;5060117;28;20763;-66
2021/06/02 09:34:25;;;;;;;7.73;7.33;;;30.10;31.90;;;;;;5060496;28;20530;-64
2021/06/02 09:36:56;;;;;;;8.33;7.83;;;28.50;35.80;;;;;;5057882;28;20463;-64
2021/06/02 09:39:23;;;;;;;8.00;7.70;;;27.40;37.10;;;;;;5060011;28;20468;-64
2021/06/02 09:41:57;;;;;;;8.30;7.90;;;27.70;38.40;;;;;;5048636;28;20671;-65
2021/06/02 09:44:27;;;;;;;7.70;7.20;;;28.30;35.50;;;;;;5045264;28;20445;-66
2021/06/02 09:47:10;;;;;;;8.17;7.47;;;27.70;35.90;;;;;;5049623;28;20946;-66
2021/06/02 09:49:54;;;;;;;7.30;6.90;;;27.50;37.50;;;;;;5051148;28;20430;-66
2021/06/02 09:52:48;;;;;;;7.50;6.80;;;27.30;37.10;;;;;;5056419;28;20440;-65
2021/06/02 09:55:19;;;;;;;6.70;6.40;;;26.90;37.80;;;;;;5059317;28;20426;-66
2021/06/02 09:58:08;;;;;;;7.43;7.03;;;26.80;38.30;;;;;;5055590;28;20429;-66
2021/06/02 10:00:40;;;;;;;7.13;6.70;;;26.80;37.80;;;;;;5057291;28;20411;-66
2021/06/02 10:03:13;;;;;;;6.97;6.57;;;25.80;39.80;;;;;;5059272;28;20443;-66
2021/06/02 10:05:48;;;;;;;7.03;6.67;;;25.40;39.20;;;;;;5056654;28;20451;-66
2021/06/02 10:08:30;;;;;;;6.83;6.43;;;25.60;39.80;;;;;;5055452;28;20449;-67
2021/06/02 10:11:18;;;;;;;7.30;6.80;;;25.50;39.40;;;;;;5059022;28;20441;-65
2021/06/02 10:13:50;;;;;;;6.40;6.10;;;25.00;40.60;;;;;;5059198;28;20507;-68
2021/06/02 10:16:40;;;;;;;7.67;7.00;;;24.80;40.50;;;;;;5059443;28;20484;-66
2021/06/02 10:19:07;;;;;;;7.20;6.90;;;24.70;41.60;;;;;;5054483;28;20448;-66
2021/06/02 10:21:46;;;;;;;6.70;6.40;;;24.40;40.50;;;;;;5059214;28;20594;-65
2021/06/02 10:24:13;;;;;;;6.60;6.30;;;24.10;41.40;;;;;;5055164;28;20769;-66
2021/06/02 10:26:40;;;;;;;6.07;5.77;;;23.90;42.00;;;;;;5058595;28;20444;-65
2021/06/02 10:29:08;;;;;;;6.53;6.13;;;23.50;42.40;;;;;;5052038;28;20459;-64
2021/06/02 10:31:35;;;;;;;6.40;6.00;;;23.50;44.20;;;;;;5058399;28;20452;-67
2021/06/02 10:34:03;;;;;;;6.50;6.00;;;23.70;43.20;;;;;;5050149;28;20479;-67
2021/06/02 10:36:30;;;;;;;7.17;6.67;;;24.00;44.70;;;;;;5052581;28;20655;-66
2021/06/02 10:39:00;;;;;;;6.40;6.00;;;24.20;43.00;;;;;;5053384;28;20509;-67
2021/06/02 10:41:34;;;;;;;6.50;6.10;;;24.20;42.90;;;;;;5057920;28;20810;-65
2021/06/02 10:44:20;;;;;;;6.10;5.80;;;23.80;42.90;;;;;;5057499;28;20441;-66
2021/06/02 10:46:50;;;;;;;6.60;6.30;;;23.50;43.20;;;;;;5052222;28;20437;-66
2021/06/02 10:49:33;;;;;;;6.80;6.30;;;23.20;43.20;;;;;;5052195;28;20448;-67
2021/06/02 10:52:01;;;;;;;6.27;5.97;;;23.10;43.40;;;;;;5053220;28;20449;-66
2021/06/02 10:54:36;;;;;;;6.07;5.67;;;23.60;45.70;;;;;;5055193;28;20485;-66
2021/06/02 10:57:14;;;;;;;7.90;6.00;;;23.90;42.90;;;;;;5055495;28;20436;-65
2021/06/02 10:59:43;;;;;;;6.97;6.47;;;23.80;43.50;;;;;;5053229;28;20436;-65
2021/06/02 11:02:13;;;;;;;6.50;6.10;;;23.70;43.40;;;;;;5058943;28;20440;-67
2021/06/02 11:04:55;;;;;;;6.97;6.33;;;23.90;43.80;;;;;;5052842;28;20433;-66
2021/06/02 11:07:30;;;;;;;6.63;6.20;;;24.10;43.40;;;;;;5051569;28;20552;-65
2021/06/02 11:10:06;;;;;;;6.30;6.00;;;24.20;44.10;;;;;;5053746;28;20441;-67
2021/06/02 11:12:47;;;;;;;5.43;5.23;;;24.20;43.10;;;;;;5070718;28;20494;-67
2021/06/02 11:15:35;;;;;;;6.00;5.70;;;23.90;42.10;;;;;;5047800;28;20433;-68
2021/06/02 11:18:14;;;;;;;6.43;5.93;;;23.60;43.70;;;;;;5058186;28;20440;-66
2021/06/02 11:20:43;;;;;;;6.50;6.00;;;23.60;44.00;;;;;;5057119;28;20470;-66
2021/06/02 11:23:11;;;;;;;6.80;6.40;;;23.70;43.50;;;;;;5044709;28;20525;-67
2021/06/02 11:25:40;;;;;;;6.20;5.90;;;23.50;42.90;;;;;;5057122;28;20420;-66
2021/06/02 11:28:09;;;;;;;5.80;5.60;;;23.30;43.80;;;;;;5058031;28;20475;-65
2021/06/02 11:30:36;;;;;;;6.50;6.20;;;23.10;43.40;;;;;;5057507;28;20448;-67
2021/06/02 11:33:09;;;;;;;6.37;6.00;;;23.30;44.60;;;;;;5052359;28;20491;-66
2021/06/02 11:35:56;;;;;;;7.23;6.73;;;23.20;44.20;;;;;;5054191;28;20487;-66
2021/06/02 11:38:24;;;;;;;6.37;5.97;;;23.00;43.80;;;;;;5056402;28;20567;-65
2021/06/02 11:40:53;;;;;;;12.60;10.40;;;22.70;44.70;;;;;;5056824;28;20461;-65
2021/06/02 11:43:21;;;;;;;6.37;5.97;;;22.90;44.90;;;;;;5058063;28;20455;-68
2021/06/02 11:45:49;;;;;;;6.23;5.83;;;23.10;44.20;;;;;;5057371;28;20419;-64
2021/06/02 11:48:21;;;;;;;125.30;43.97;;;23.10;45.40;;;;;;5058194;28;20487;-65
2021/06/02 11:50:48;;;;;;;9.53;8.27;;;23.60;46.00;;;;;;5056585;28;20746;-66
2021/06/02 11:53:15;;;;;;;25.10;13.70;;;23.80;44.10;;;;;;5056865;28;20714;-66
2021/06/02 11:55:42;;;;;;;7.53;6.60;;;23.90;45.00;;;;;;5056959;28;20909;-66
2021/06/02 11:58:09;;;;;;;6.50;6.20;;;23.90;43.70;;;;;;5058394;28;20504;-67
2021/06/02 12:00:37;;;;;;;6.23;6.03;;;23.60;43.90;;;;;;5057075;28;20441;-67
2021/06/02 12:03:09;;;;;;;6.53;6.20;;;23.30;43.80;;;;;;5048438;28;20422;-66
2021/06/02 12:05:41;;;;;;;5.90;5.60;;;23.50;45.40;;;;;;5057124;28;21011;-66
2021/06/02 12:08:16;;;;;;;6.30;5.90;;;23.80;44.20;;;;;;5056579;28;20441;-66
2021/06/02 12:10:47;;;;;;;7.10;6.80;;;23.70;43.90;;;;;;5057461;28;20494;-67
2021/06/02 12:13:21;;;;;;;6.20;5.90;;;23.60;43.10;;;;;;5056320;28;20860;-65
2021/06/02 12:16:00;;;;;;;6.27;5.97;;;23.40;45.40;;;;;;5056915;28;20490;-67
2021/06/02 12:18:32;;;;;;;6.40;6.00;;;23.20;43.80;;;;;;5048299;28;20660;-66
2021/06/02 12:21:19;;;;;;;6.00;5.70;;;23.10;43.90;;;;;;5054434;28;20433;-65
2021/06/02 12:23:57;;;;;;;5.90;5.37;;;23.30;43.80;;;;;;5052071;28;20479;-66
2021/06/02 12:26:47;;;;;;;7.10;6.80;;;23.40;44.60;;;;;;5057372;28;20432;-66
2021/06/02 12:29:16;;;;;;;6.67;6.37;;;23.70;45.70;;;;;;5056573;28;20429;-67
2021/06/02 12:31:56;;;;;;;7.23;6.83;;;24.00;43.90;;;;;;5057534;28;20495;-67
2021/06/02 12:34:32;;;;;;;6.43;6.13;;;24.20;44.30;;;;;;5055949;28;20471;-66
2021/06/02 12:37:03;;;;;;;6.57;6.17;;;24.50;42.40;;;;;;5056070;28;20465;-66
2021/06/02 12:39:34;;;;;;;6.33;5.90;;;24.60;42.80;;;;;;5056307;28;20452;-67
2021/06/02 12:42:06;;;;;;;6.20;5.90;;;24.30;42.40;;;;;;5056114;28;20476;-67
2021/06/02 12:44:36;;;;;;;8.07;7.37;;;24.00;43.90;;;;;;5057537;28;20440;-66
2021/06/02 12:47:08;;;;;;;7.47;6.90;;;24.00;45.80;;;;;;5060566;28;20441;-65
2021/06/02 12:49:40;;;;;;;5.93;5.53;;;24.10;44.90;;;;;;5058381;28;20441;-67
2021/06/02 12:52:13;;;;;;;5.90;5.70;;;24.40;43.30;;;;;;5059240;28;20658;-66
2021/06/02 12:54:41;;;;;;;6.20;5.90;;;24.10;43.60;;;;;;5058441;28;20482;-68
2021/06/02 12:57:09;;;;;;;6.47;6.17;;;23.70;44.50;;;;;;5059850;28;20440;-66
2021/06/02 12:59:38;;;;;;;6.37;6.17;;;23.90;44.30;;;;;;5057742;28;20438;-66
2021/06/02 13:02:09;;;;;;;5.90;5.50;;;24.40;43.70;;;;;;5060272;28;20498;-66
2021/06/02 13:04:39;;;;;;;7.00;6.60;;;25.20;43.50;;;;;;5058529;28;20444;-66
2021/06/02 13:07:07;;;;;;;6.20;5.90;;;24.40;43.30;;;;;;5058817;28;20460;-66
2021/06/02 13:09:34;;;;;;;6.30;6.00;;;24.30;43.40;;;;;;5058849;28;20447;-66
2021/06/02 13:12:02;;;;;;;5.63;5.30;;;24.20;43.40;;;;;;5059942;28;20490;-66
2021/06/02 13:14:38;;;;;;;6.37;6.07;;;24.00;43.80;;;;;;5058407;28;20511;-66
2021/06/02 13:17:06;;;;;;;5.77;5.47;;;23.80;43.70;;;;;;5056831;28;20478;-67
2021/06/02 13:19:38;;;;;;;6.40;6.10;;;23.70;43.70;;;;;;5056744;28;20498;-66
2021/06/02 13:22:16;;;;;;;7.03;6.07;;;23.60;43.20;;;;;;5058340;28;20505;-63
2021/06/02 13:24:44;;;;;;;6.07;5.77;;;23.20;44.60;;;;;;5059047;28;20437;-67
2021/06/02 13:27:21;;;;;;;6.27;5.87;;;22.90;45.20;;;;;;5058295;28;20420;-65
2021/06/02 13:30:10;;;;;;;5.63;5.30;;;22.70;46.50;;;;;;5055786;28;20470;-66
2021/06/02 13:32:37;;;;;;;6.83;6.53;;;23.00;46.60;;;;;;5058669;28;20514;-67